Granger, Missouri
Current Conditions -  °F | °C
As of 10:15 PM on Thursday 27 Nov 2014 (Local Time) from KEOK Reporting Station
Overcast Overcast  
Wind Chill: 11°   Ceiling: 5500
Heat Index: 18°   Visibility: 10mi
Dew Point: 10°   Wind: 5mph
Humidity: 73%   Direction: 110°ESE
Pressure: 30.4"   Gusts: NA
Location:  40.47°N, 91.98°W
Report Text: KEOK 280415Z AUTO 11004KT 10SM SCT044 BKN055 OVC075 M08/M12 A3040 RMK AO2
Loading
Personal Weather Stations






























Interactive Weather Map New forecast layout! Learn more

10-Day Weather Forecast

Advertisements
Track Severe Weather on mobile